Portada
METAR-TAF:

METAR-TAF

Aeropuertos :

Meierwik

Glücksburg, Alemania

latitud: 54-50N, longitud: 009-30E, altitud: 27 m

Observación

El informe se hizo hace 47 minutos, a las 06:20 UTC
Viento 9 kt del suroeste
Temperatura 5°C
Humedad 81%
Presión 1016 hPa
Visibilidad: 8000 m
Nubes dispersas a una altura de 32000 ft

METAR: ETGG 180620Z 23009KT 8000 SCT320 05/02 Q1016 BLU+

Hora: 08:07 (07:07 UTC)


TAF: falta

Observaciones y pronósticos meteorológicos de más de 4000 aeropuertos (mensajes METAR y TAF).

Los puntos amarillos y rojos representan las estaciones disponibles.

Ponga el ratón en el punto deseado para ver el nombre de la estación.

Haga clic para ver las observaciones y los pronósticos meteorológicos.

Para cambiar el mapa : haga clic en los botones verdes con una cruz de color negro para hacer un zoom, en el botón verde con un guión para alejar o en las flechas verdes para mapas adyacentes.


METAR-TAF: